Strona główna
METAR-TAF:

METAR-TAF

Lotnisko :

Massena, Nowy Jork, Stany Zjednoczone

Szerokość geograficzna: 44-56-09N, Długość geograficzna: 074-50-44W, wysokość: 66 m

Aktualna obserwacja pogody

Raport powstał 1 godzina i 5 minut temu, godzina 08:53 UTC
Cisza
Temperatura -1°C
Wilgotność 86%
Ciśnienie 1013 hPa
Widzialność: 16.1 km
bezchmurnie

METAR: KMSS 250853Z AUTO 00000KT 10SM CLR M01/M03 A2992 RMK AO2 SLP136 T10111033 51000

czas: 04:58 (09:58 UTC)

Prognoza

Raport powstał 4 godziny i 33 minut temu, godzina 05:25 UTC
Prognoza ważna od 25 godzina 06 UTC do 26 godzina 06 UTC
Wiatr kt od północ
Widzialność: 10 km
Zachmurzenie całkowite na wysokości 15000 ft
Od 25 godzina 1500 UTC
Wiatr 6 kt od północno-północny wschód
Widzialność: 10 km
Przerywane chmury na wysokości 4000 ft

TAF: KMSS 250525Z 2506/2606 00000KT P6SM OVC150 FM251500 03006KT P6SM BKN040

Obserwacja i prognoza pogody dla ponad 4000 lotnisk (raport METAR i TAF).

Dostępne stacje oznaczono żółtymi i czerwonymi punktami na mapie.

Najedź kursorem aby zobaczyć nazwę stacji.

Kliknij aby zobaczyć obserwacje i prognozy pogody.

Aby zmienić mapę: kliknij na zielony przycisk z czarnym krzyżykiem, aby powiększyć; na zielony przycisk z myślnikiem, aby pomniejszyć; na zielone strzałki, aby przejść do map sąsiednich.


METAR-TAF: